createdAt,value
2022-08-16T00:00:52.552Z,977.490
2022-08-16T00:02:52.186Z,977.462
2022-08-16T00:04:51.479Z,977.489
2022-08-16T00:06:49.862Z,977.473
2022-08-16T00:08:50.075Z,977.449
2022-08-16T00:10:53.605Z,977.435
2022-08-16T00:12:51.344Z,977.428
2022-08-16T00:14:50.233Z,977.464
2022-08-16T00:17:16.182Z,977.486
2022-08-16T00:18:50.585Z,977.514
2022-08-16T00:20:53.248Z,977.533
2022-08-16T00:22:51.729Z,977.469
2022-08-16T00:24:51.718Z,977.436
2022-08-16T00:26:51.195Z,977.399
2022-08-16T00:28:55.276Z,977.403
2022-08-16T00:30:51.256Z,977.430
2022-08-16T00:32:50.423Z,977.436
2022-08-16T00:34:54.506Z,977.467
2022-08-16T00:36:56.167Z,977.540
2022-08-16T00:38:50.342Z,977.556
2022-08-16T00:40:54.718Z,977.556
2022-08-16T00:42:55.300Z,977.619
2022-08-16T00:44:51.445Z,977.682
2022-08-16T00:47:06.701Z,977.669
2022-08-16T00:48:50.790Z,977.669
2022-08-16T00:50:56.646Z,977.649
2022-08-16T00:52:54.684Z,977.647
2022-08-16T00:54:52.272Z,977.649
2022-08-16T00:57:00.383Z,977.595
2022-08-16T00:58:51.569Z,977.601
2022-08-16T01:00:54.737Z,977.597
2022-08-16T01:02:50.947Z,977.650
2022-08-16T01:05:12.075Z,977.626
2022-08-16T01:07:02.964Z,977.639
2022-08-16T01:08:51.300Z,977.653
2022-08-16T01:10:50.108Z,977.637
2022-08-16T01:12:50.594Z,977.712
2022-08-16T01:14:53.603Z,977.714
2022-08-16T01:16:49.908Z,977.736
2022-08-16T01:18:49.955Z,977.714
2022-08-16T01:20:51.493Z,977.711
2022-08-16T01:22:56.017Z,977.716
2022-08-16T01:24:55.992Z,977.676
2022-08-16T01:26:50.698Z,977.711
2022-08-16T01:28:50.855Z,977.724
2022-08-16T01:30:50.777Z,977.687
2022-08-16T01:33:14.236Z,977.718
2022-08-16T01:34:57.259Z,977.724
2022-08-16T01:36:58.701Z,977.736
2022-08-16T01:38:57.719Z,977.770
2022-08-16T01:40:50.871Z,977.757
2022-08-16T01:42:55.671Z,977.748
2022-08-16T01:44:52.545Z,977.757
2022-08-16T01:46:50.390Z,977.752
2022-08-16T01:48:51.223Z,977.779
2022-08-16T01:51:16.299Z,977.821
2022-08-16T01:52:51.558Z,977.827
2022-08-16T01:54:53.705Z,977.852
2022-08-16T01:56:50.950Z,977.830
2022-08-16T01:58:50.116Z,977.830
2022-08-16T02:00:51.257Z,977.807
2022-08-16T02:02:54.049Z,977.807
2022-08-16T02:04:55.111Z,977.761
2022-08-16T02:06:51.479Z,977.769
2022-08-16T02:08:51.407Z,977.769
2022-08-16T02:10:50.352Z,977.783
2022-08-16T02:13:01.236Z,977.714
2022-08-16T02:14:52.189Z,977.764
2022-08-16T02:16:52.410Z,977.806
2022-08-16T02:18:50.354Z,977.792
2022-08-16T02:20:53.864Z,977.768
2022-08-16T02:22:50.927Z,977.805
2022-08-16T02:24:52.544Z,977.816
2022-08-16T02:26:50.389Z,977.816
2022-08-16T02:28:52.991Z,977.808
2022-08-16T02:30:52.517Z,977.827
2022-08-16T02:32:52.135Z,977.807
2022-08-16T02:34:50.674Z,977.819
2022-08-16T02:36:51.156Z,977.864
2022-08-16T02:38:51.491Z,977.863
2022-08-16T02:40:50.766Z,977.863
2022-08-16T02:42:51.510Z,977.858
2022-08-16T02:44:52.234Z,977.842
2022-08-16T02:46:54.130Z,977.818
2022-08-16T02:48:50.089Z,977.823
2022-08-16T02:51:11.158Z,977.834
2022-08-16T02:52:50.226Z,977.852
2022-08-16T02:54:56.068Z,977.900
2022-08-16T02:56:53.872Z,977.847
2022-08-16T02:58:49.918Z,977.780
2022-08-16T03:00:50.772Z,977.749
2022-08-16T03:02:56.617Z,977.777
2022-08-16T03:04:54.244Z,977.767
2022-08-16T03:06:57.220Z,977.790
2022-08-16T03:08:53.621Z,977.785
2022-08-16T03:10:59.276Z,977.813
2022-08-16T03:12:57.014Z,977.819
2022-08-16T03:14:50.414Z,977.829
2022-08-16T03:17:01.977Z,977.853
2022-08-16T03:18:50.150Z,977.841
2022-08-16T03:20:56.235Z,977.836
2022-08-16T03:22:50.308Z,977.826
2022-08-16T03:24:50.247Z,977.800
2022-08-16T03:26:51.682Z,977.838
2022-08-16T03:28:52.364Z,977.836
2022-08-16T03:30:50.310Z,977.829
2022-08-16T03:32:52.395Z,977.823
2022-08-16T03:34:50.401Z,977.794
2022-08-16T03:36:50.793Z,977.795
2022-08-16T03:38:50.730Z,977.809
2022-08-16T03:40:51.474Z,977.809
2022-08-16T03:43:19.549Z,977.768
2022-08-16T03:45:03.670Z,977.791
2022-08-16T03:46:50.505Z,977.825
2022-08-16T03:48:51.277Z,977.872
2022-08-16T03:51:00.916Z,977.849
2022-08-16T03:52:50.442Z,977.836
2022-08-16T03:55:00.013Z,977.833
2022-08-16T03:56:59.033Z,977.849
2022-08-16T03:58:52.912Z,977.851
2022-08-16T04:00:59.877Z,977.918
2022-08-16T04:02:50.084Z,977.934
2022-08-16T04:04:50.321Z,977.946
2022-08-16T04:06:51.414Z,977.987
2022-08-16T04:08:51.076Z,977.913
2022-08-16T04:10:52.024Z,977.930
2022-08-16T04:13:04.391Z,977.973
2022-08-16T04:14:51.900Z,978.003
2022-08-16T04:16:51.308Z,977.987
2022-08-16T04:18:50.217Z,977.988
2022-08-16T04:20:50.765Z,977.990
2022-08-16T04:22:50.826Z,977.982
2022-08-16T04:24:59.686Z,978.066
2022-08-16T04:26:50.678Z,978.122
2022-08-16T04:29:16.485Z,978.152
2022-08-16T04:30:51.621Z,978.203
2022-08-16T04:32:50.565Z,978.176
2022-08-16T04:34:50.107Z,978.189
2022-08-16T04:36:50.595Z,978.185
2022-08-16T04:38:52.825Z,978.201
2022-08-16T04:40:50.845Z,978.200
2022-08-16T04:42:51.181Z,978.208
2022-08-16T04:44:56.206Z,978.265
2022-08-16T04:47:21.339Z,978.284
2022-08-16T04:48:50.382Z,978.279
2022-08-16T04:50:51.114Z,978.308
2022-08-16T04:52:50.506Z,978.370
2022-08-16T04:54:50.702Z,978.380
2022-08-16T04:56:54.121Z,978.373
2022-08-16T04:58:51.178Z,978.355
2022-08-16T05:00:50.482Z,978.363
2022-08-16T05:03:01.150Z,978.370
2022-08-16T05:04:51.736Z,978.327
2022-08-16T05:06:50.084Z,978.325
2022-08-16T05:08:56.780Z,978.333
2022-08-16T05:10:49.826Z,978.341
2022-08-16T05:12:52.344Z,978.315
2022-08-16T05:15:03.214Z,978.301
2022-08-16T05:16:52.489Z,978.276
2022-08-16T05:18:50.478Z,978.251
2022-08-16T05:21:10.973Z,978.237
2022-08-16T05:22:53.291Z,978.296
2022-08-16T05:24:55.864Z,978.342
2022-08-16T05:26:52.010Z,978.345
2022-08-16T05:28:56.204Z,978.363
2022-08-16T05:30:50.822Z,978.359
2022-08-16T05:32:50.482Z,978.384
2022-08-16T05:34:50.897Z,978.393
2022-08-16T05:36:51.704Z,978.402
2022-08-16T05:38:52.505Z,978.410
2022-08-16T05:41:00.600Z,978.401
2022-08-16T05:42:50.614Z,978.461
2022-08-16T05:44:50.971Z,978.456
2022-08-16T05:46:51.788Z,978.452
2022-08-16T05:49:05.735Z,978.400
2022-08-16T05:50:53.511Z,978.457
2022-08-16T05:52:50.634Z,978.425
2022-08-16T05:55:01.941Z,978.425
2022-08-16T05:56:51.573Z,978.394
2022-08-16T05:58:51.307Z,978.391
2022-08-16T06:00:50.707Z,978.371
2022-08-16T06:02:50.691Z,978.354
2022-08-16T06:04:50.017Z,978.386
2022-08-16T06:06:57.809Z,978.441
2022-08-16T06:08:53.161Z,978.454
2022-08-16T06:11:11.069Z,978.438
2022-08-16T06:12:56.215Z,978.446
2022-08-16T06:14:51.658Z,978.437
2022-08-16T06:16:51.344Z,978.450
2022-08-16T06:18:51.513Z,978.454
2022-08-16T06:21:00.125Z,978.457
2022-08-16T06:23:11.498Z,978.418
2022-08-16T06:24:56.143Z,978.405
2022-08-16T06:26:58.737Z,978.421
2022-08-16T06:28:53.262Z,978.432
2022-08-16T06:30:53.401Z,978.453
2022-08-16T06:32:51.056Z,978.491
2022-08-16T06:35:03.286Z,978.528
2022-08-16T06:36:59.846Z,978.537
2022-08-16T06:38:57.113Z,978.582
2022-08-16T06:40:50.012Z,978.590
2022-08-16T06:42:57.763Z,978.585
2022-08-16T06:44:50.489Z,978.596
2022-08-16T06:46:51.407Z,978.595
2022-08-16T06:48:52.179Z,978.582
2022-08-16T06:50:50.119Z,978.565
2022-08-16T06:53:09.402Z,978.582
2022-08-16T06:54:52.289Z,978.546
2022-08-16T06:56:55.451Z,978.546
2022-08-16T06:58:50.515Z,978.600
2022-08-16T07:00:50.561Z,978.668
2022-08-16T07:02:52.666Z,978.657
2022-08-16T07:04:53.666Z,978.695
2022-08-16T07:06:51.576Z,978.696
2022-08-16T07:08:50.666Z,978.708
2022-08-16T07:10:50.723Z,978.708
2022-08-16T07:13:11.689Z,978.686
2022-08-16T07:14:50.211Z,978.718
2022-08-16T07:16:50.432Z,978.653
2022-08-16T07:19:03.041Z,978.727
2022-08-16T07:20:50.716Z,978.736
2022-08-16T07:22:59.639Z,978.694
2022-08-16T07:24:50.862Z,978.713
2022-08-16T07:26:50.116Z,978.671
2022-08-16T07:28:50.403Z,978.666
2022-08-16T07:30:50.284Z,978.623
2022-08-16T07:32:52.433Z,978.656
2022-08-16T07:34:52.403Z,978.626
2022-08-16T07:36:59.134Z,978.677
2022-08-16T07:38:50.772Z,978.639
2022-08-16T07:41:02.153Z,978.639
2022-08-16T07:42:52.129Z,978.661
2022-08-16T07:44:51.133Z,978.634
2022-08-16T07:46:56.727Z,978.628
2022-08-16T07:48:49.889Z,978.611
2022-08-16T07:51:03.357Z,978.636
2022-08-16T07:52:50.715Z,978.711
2022-08-16T07:54:53.814Z,978.763
2022-08-16T07:56:53.255Z,978.735
2022-08-16T07:58:58.555Z,978.781
2022-08-16T08:00:51.973Z,978.772
2022-08-16T08:02:52.986Z,978.766
2022-08-16T08:04:50.448Z,978.711
2022-08-16T08:06:51.549Z,978.661
2022-08-16T08:08:59.550Z,978.666
2022-08-16T08:10:51.813Z,978.697
2022-08-16T08:12:59.529Z,978.756
2022-08-16T08:14:50.869Z,978.758
2022-08-16T08:16:50.311Z,978.773
2022-08-16T08:19:02.618Z,978.725
2022-08-16T08:21:00.085Z,978.777
2022-08-16T08:22:50.927Z,978.776
2022-08-16T08:24:53.417Z,978.750
2022-08-16T08:26:50.950Z,978.732
2022-08-16T08:28:50.379Z,978.706
2022-08-16T08:31:03.162Z,978.697
2022-08-16T08:33:01.320Z,978.671
2022-08-16T08:34:51.120Z,978.684
2022-08-16T08:36:54.881Z,978.715
2022-08-16T08:38:50.762Z,978.731
2022-08-16T08:40:49.916Z,978.758
2022-08-16T08:43:11.560Z,978.774
2022-08-16T08:44:50.639Z,978.822
2022-08-16T08:47:02.406Z,978.766
2022-08-16T08:49:02.686Z,978.773
2022-08-16T08:50:51.135Z,978.796
2022-08-16T08:52:53.248Z,978.801
2022-08-16T08:54:51.137Z,978.784
2022-08-16T08:56:52.560Z,978.784
2022-08-16T08:59:13.709Z,978.784
2022-08-16T09:00:52.147Z,978.754
2022-08-16T09:02:52.801Z,978.778
2022-08-16T09:04:52.749Z,978.753
2022-08-16T09:06:50.186Z,978.779
2022-08-16T09:08:50.091Z,978.808
2022-08-16T09:11:03.372Z,978.829
2022-08-16T09:12:51.840Z,978.826
2022-08-16T09:14:51.709Z,978.836
2022-08-16T09:17:11.560Z,978.791
2022-08-16T09:19:04.260Z,978.824
2022-08-16T09:21:02.064Z,978.767
2022-08-16T09:22:53.147Z,978.735
2022-08-16T09:25:09.609Z,978.749
2022-08-16T09:26:52.874Z,978.737
2022-08-16T09:29:14.107Z,978.746
2022-08-16T09:30:51.349Z,978.723
2022-08-16T09:32:51.332Z,978.651
2022-08-16T09:34:52.828Z,978.605
2022-08-16T09:36:57.246Z,978.567
2022-08-16T09:39:00.136Z,978.647
2022-08-16T09:40:53.474Z,978.660
2022-08-16T09:42:59.999Z,978.675
2022-08-16T09:45:13.266Z,978.684
2022-08-16T09:46:57.902Z,978.659
2022-08-16T09:48:51.933Z,978.631
2022-08-16T09:50:50.593Z,978.631
2022-08-16T09:52:50.992Z,978.730
2022-08-16T09:54:50.957Z,978.716
2022-08-16T09:56:54.491Z,978.692
2022-08-16T09:59:08.142Z,978.663
2022-08-16T10:00:50.207Z,978.668
2022-08-16T10:02:52.161Z,978.649
2022-08-16T10:04:55.646Z,978.686
2022-08-16T10:06:53.598Z,978.675
2022-08-16T10:09:08.263Z,978.631
2022-08-16T10:10:50.638Z,978.632
2022-08-16T10:12:57.470Z,978.634
2022-08-16T10:14:50.311Z,978.667
2022-08-16T10:17:02.601Z,978.676
2022-08-16T10:19:07.737Z,978.704
2022-08-16T10:20:50.749Z,978.692
2022-08-16T10:23:07.690Z,978.666
2022-08-16T10:25:00.534Z,978.666
2022-08-16T10:27:20.924Z,978.630
2022-08-16T10:28:50.768Z,978.639
2022-08-16T10:30:59.807Z,978.691
2022-08-16T10:32:51.223Z,978.684
2022-08-16T10:34:52.774Z,978.714
2022-08-16T10:36:54.773Z,978.652
2022-08-16T10:38:52.385Z,978.701
2022-08-16T10:40:50.434Z,978.673
2022-08-16T10:42:50.783Z,978.644
2022-08-16T10:44:55.325Z,978.639
2022-08-16T10:46:50.719Z,978.589
2022-08-16T10:48:50.352Z,978.589
2022-08-16T10:50:50.092Z,978.610
2022-08-16T10:52:59.674Z,978.657
2022-08-16T10:55:40.590Z,978.655
2022-08-16T10:56:57.218Z,978.641
2022-08-16T10:58:51.492Z,978.638
2022-08-16T11:00:58.026Z,978.636
2022-08-16T11:03:01.704Z,978.609
2022-08-16T11:05:09.510Z,978.629
2022-08-16T11:09:28.809Z,978.631
2022-08-16T11:11:11.622Z,978.654
2022-08-16T11:12:53.177Z,978.629
2022-08-16T11:15:11.989Z,978.574
2022-08-16T11:17:11.132Z,978.601
2022-08-16T11:19:12.772Z,978.590
2022-08-16T11:20:50.879Z,978.593
2022-08-16T11:22:51.308Z,978.562
2022-08-16T11:25:12.251Z,978.603
2022-08-16T11:29:14.409Z,978.563
2022-08-16T11:30:57.814Z,978.560
2022-08-16T11:32:50.787Z,978.475
2022-08-16T11:35:13.501Z,978.482
2022-08-16T11:37:01.548Z,978.443
2022-08-16T11:38:59.101Z,978.431
2022-08-16T11:40:53.490Z,978.414
2022-08-16T11:42:51.641Z,978.393
2022-08-16T11:44:57.284Z,978.421
2022-08-16T11:46:53.943Z,978.428
2022-08-16T11:48:50.036Z,978.425
2022-08-16T11:50:50.091Z,978.396
2022-08-16T11:52:50.658Z,978.396
2022-08-16T11:55:00.539Z,978.326
2022-08-16T11:56:57.827Z,978.360
2022-08-16T11:58:57.308Z,978.308
2022-08-16T12:00:53.819Z,978.336
2022-08-16T12:02:50.421Z,978.322
2022-08-16T12:04:53.556Z,978.319
2022-08-16T12:06:54.526Z,978.343
2022-08-16T12:08:49.843Z,978.373
2022-08-16T12:10:50.961Z,978.348
2022-08-16T12:12:52.307Z,978.372
2022-08-16T12:15:00.646Z,978.363
2022-08-16T12:16:57.203Z,978.349
2022-08-16T12:18:50.401Z,978.333
2022-08-16T12:20:58.467Z,978.306
2022-08-16T12:22:52.715Z,978.329
2022-08-16T12:24:52.936Z,978.378
2022-08-16T12:26:50.176Z,978.334
2022-08-16T12:28:56.831Z,978.276
2022-08-16T12:30:49.911Z,978.321
2022-08-16T12:32:58.015Z,978.319
2022-08-16T12:34:53.790Z,978.303
2022-08-16T12:36:50.386Z,978.303
2022-08-16T12:38:53.433Z,978.422
2022-08-16T12:40:57.467Z,978.433
2022-08-16T12:42:54.053Z,978.374
2022-08-16T12:44:50.718Z,978.413
2022-08-16T12:46:51.437Z,978.380
2022-08-16T12:48:53.063Z,978.382
2022-08-16T12:50:50.653Z,978.322
2022-08-16T12:52:53.849Z,978.321
2022-08-16T12:54:55.517Z,978.277
2022-08-16T12:56:50.951Z,978.231
2022-08-16T12:58:52.301Z,978.159
2022-08-16T13:00:50.324Z,978.198
2022-08-16T13:02:51.637Z,978.224
2022-08-16T13:04:50.718Z,978.187
2022-08-16T13:06:53.466Z,978.165
2022-08-16T13:08:50.639Z,978.097
2022-08-16T13:10:52.931Z,978.062
2022-08-16T13:12:49.873Z,978.048
2022-08-16T13:14:50.550Z,978.062
2022-08-16T13:16:50.774Z,978.043
2022-08-16T13:18:54.769Z,978.061
2022-08-16T13:20:50.785Z,978.068
2022-08-16T13:22:53.053Z,978.074
2022-08-16T13:24:51.531Z,978.059
2022-08-16T13:26:53.619Z,978.034
2022-08-16T13:28:50.186Z,978.006
2022-08-16T13:30:50.134Z,977.951
2022-08-16T13:32:53.027Z,978.017
2022-08-16T13:34:50.621Z,978.043
2022-08-16T13:36:50.516Z,978.081
2022-08-16T13:38:51.800Z,978.017
2022-08-16T13:40:50.780Z,978.037
2022-08-16T13:42:50.723Z,978.027
2022-08-16T13:44:58.787Z,978.060
2022-08-16T13:46:54.196Z,978.030
2022-08-16T13:48:51.466Z,978.065
2022-08-16T13:50:52.482Z,978.072
2022-08-16T13:52:50.474Z,978.072
2022-08-16T13:54:51.576Z,978.060
2022-08-16T13:56:50.783Z,978.016
2022-08-16T13:58:56.726Z,978.023
2022-08-16T14:00:54.433Z,978.006
2022-08-16T14:02:57.127Z,978.045
2022-08-16T14:05:05.920Z,977.983
2022-08-16T14:06:50.641Z,977.920
2022-08-16T14:09:07.177Z,977.959
2022-08-16T14:10:51.403Z,977.981
2022-08-16T14:12:54.091Z,977.935
2022-08-16T14:14:57.501Z,977.889
2022-08-16T14:16:50.109Z,977.838
2022-08-16T14:18:53.213Z,977.860
2022-08-16T14:20:51.577Z,977.860
2022-08-16T14:22:54.972Z,977.873
2022-08-16T14:24:50.407Z,977.867
2022-08-16T14:26:50.675Z,977.837
2022-08-16T14:28:50.930Z,977.819
2022-08-16T14:30:51.652Z,977.932
2022-08-16T14:32:52.084Z,977.841
2022-08-16T14:34:55.806Z,977.856
2022-08-16T14:36:53.251Z,977.783
2022-08-16T14:38:50.582Z,977.781
2022-08-16T14:40:55.999Z,977.843
2022-08-16T14:42:52.955Z,977.802
2022-08-16T14:44:50.451Z,977.722
2022-08-16T14:46:53.465Z,977.699
2022-08-16T14:48:53.578Z,977.639
2022-08-16T14:50:50.308Z,977.639
2022-08-16T14:53:00.103Z,977.679
2022-08-16T14:54:50.852Z,977.640
2022-08-16T14:56:55.637Z,977.602
2022-08-16T14:58:51.493Z,977.647
2022-08-16T15:00:52.410Z,977.636
2022-08-16T15:02:54.436Z,977.616
2022-08-16T15:04:50.024Z,977.603
2022-08-16T15:06:50.362Z,977.664
2022-08-16T15:08:51.149Z,977.652
2022-08-16T15:10:51.096Z,977.665
2022-08-16T15:12:51.308Z,977.666
2022-08-16T15:14:51.713Z,977.623
2022-08-16T15:16:50.804Z,977.583
2022-08-16T15:18:50.344Z,977.598
2022-08-16T15:20:50.974Z,977.597
2022-08-16T15:22:51.650Z,977.600
2022-08-16T15:24:51.944Z,977.582
2022-08-16T15:26:50.176Z,977.648
2022-08-16T15:28:51.264Z,977.639
2022-08-16T15:31:04.517Z,977.676
2022-08-16T15:32:50.755Z,977.630
2022-08-16T15:34:49.956Z,977.627
2022-08-16T15:36:52.238Z,977.576
2022-08-16T15:39:29.337Z,977.604
2022-08-16T15:40:59.625Z,977.606
2022-08-16T15:42:54.406Z,977.626
2022-08-16T15:44:58.559Z,977.695
2022-08-16T15:47:02.722Z,977.687
2022-08-16T15:48:51.796Z,977.653
2022-08-16T15:50:52.641Z,977.656
2022-08-16T15:52:50.756Z,977.647
2022-08-16T15:54:57.244Z,977.672
2022-08-16T15:56:50.652Z,977.702
2022-08-16T15:58:56.224Z,977.653
2022-08-16T16:00:51.470Z,977.701
2022-08-16T16:02:52.033Z,977.695
2022-08-16T16:04:54.051Z,977.652
2022-08-16T16:06:55.702Z,977.634
2022-08-16T16:08:50.992Z,977.664
2022-08-16T16:10:55.046Z,977.709
2022-08-16T16:12:55.141Z,977.705
2022-08-16T16:14:50.870Z,977.737
2022-08-16T16:16:54.326Z,977.712
2022-08-16T16:18:52.657Z,977.684
2022-08-16T16:20:52.269Z,977.696
2022-08-16T16:22:50.455Z,977.668
2022-08-16T16:24:50.385Z,977.678
2022-08-16T16:26:49.938Z,977.672
2022-08-16T16:29:14.450Z,977.658
2022-08-16T16:30:57.164Z,977.647
2022-08-16T16:32:50.334Z,977.676
2022-08-16T16:34:50.578Z,977.639
2022-08-16T16:36:54.558Z,977.635
2022-08-16T16:38:50.587Z,977.676
2022-08-16T16:40:54.832Z,977.621
2022-08-16T16:42:50.774Z,977.586
2022-08-16T16:45:01.148Z,977.567
2022-08-16T16:46:58.228Z,977.584
2022-08-16T16:48:52.029Z,977.570
2022-08-16T16:50:50.797Z,977.550
2022-08-16T16:52:52.936Z,977.541
2022-08-16T16:54:56.346Z,977.560
2022-08-16T16:56:51.028Z,977.560
2022-08-16T16:58:54.498Z,977.582
2022-08-16T17:00:59.099Z,977.544
2022-08-16T17:02:54.255Z,977.522
2022-08-16T17:04:49.931Z,977.569
2022-08-16T17:06:57.605Z,977.569
2022-08-16T17:08:51.687Z,977.493
2022-08-16T17:10:50.784Z,977.557
2022-08-16T17:12:57.032Z,977.570
2022-08-16T17:14:50.686Z,977.540
2022-08-16T17:16:51.320Z,977.526
2022-08-16T17:19:15.947Z,977.553
2022-08-16T17:20:53.421Z,977.588
2022-08-16T17:22:54.858Z,977.589
2022-08-16T17:24:53.000Z,977.561
2022-08-16T17:26:57.678Z,977.585
2022-08-16T17:29:10.808Z,977.577
2022-08-16T17:30:51.355Z,977.594
2022-08-16T17:32:55.013Z,977.564
2022-08-16T17:34:51.103Z,977.541
2022-08-16T17:36:54.824Z,977.564
2022-08-16T17:38:49.875Z,977.605
2022-08-16T17:40:59.854Z,977.575
2022-08-16T17:42:50.758Z,977.637
2022-08-16T17:44:50.663Z,977.613
2022-08-16T17:46:53.335Z,977.621
2022-08-16T17:48:50.299Z,977.639
2022-08-16T17:50:55.225Z,977.657
2022-08-16T17:52:51.308Z,977.683
2022-08-16T17:54:50.674Z,977.693
2022-08-16T17:56:50.139Z,977.679
2022-08-16T17:58:50.187Z,977.732
2022-08-16T18:00:50.296Z,977.762
2022-08-16T18:02:50.267Z,977.789
2022-08-16T18:04:50.603Z,977.794
2022-08-16T18:06:50.726Z,977.801
2022-08-16T18:09:03.816Z,977.806
2022-08-16T18:10:50.625Z,977.838
2022-08-16T18:12:56.246Z,977.843
2022-08-16T18:15:00.156Z,977.858
2022-08-16T18:16:50.657Z,977.877
2022-08-16T18:18:50.651Z,977.857
2022-08-16T18:20:50.531Z,977.872
2022-08-16T18:22:50.924Z,977.859
2022-08-16T18:24:50.106Z,977.859
2022-08-16T18:26:50.681Z,977.867
2022-08-16T18:28:50.640Z,977.882
2022-08-16T18:31:00.377Z,977.914
2022-08-16T18:32:51.349Z,977.912
2022-08-16T18:34:49.961Z,977.889
2022-08-16T18:36:50.231Z,977.891
2022-08-16T18:38:50.167Z,977.899
2022-08-16T18:40:50.071Z,977.904
2022-08-16T18:42:50.764Z,977.893
2022-08-16T18:44:49.918Z,977.879
2022-08-16T18:46:51.442Z,977.888
2022-08-16T18:48:50.330Z,977.877
2022-08-16T18:51:08.386Z,977.883
2022-08-16T18:52:51.007Z,977.893
2022-08-16T18:55:14.274Z,977.934
2022-08-16T18:56:58.497Z,977.963
2022-08-16T18:58:50.479Z,977.968
2022-08-16T19:00:57.650Z,977.975
2022-08-16T19:02:59.674Z,977.959
2022-08-16T19:04:58.836Z,977.987
2022-08-16T19:06:50.045Z,978.002
2022-08-16T19:08:49.948Z,978.022
2022-08-16T19:10:50.212Z,978.025
2022-08-16T19:12:50.626Z,978.037
2022-08-16T19:14:51.200Z,978.075
2022-08-16T19:16:50.566Z,978.098
2022-08-16T19:18:50.489Z,978.119
2022-08-16T19:20:50.680Z,978.134
2022-08-16T19:23:09.865Z,978.134
2022-08-16T19:24:50.262Z,978.149
2022-08-16T19:26:50.620Z,978.165
2022-08-16T19:29:08.575Z,978.182
2022-08-16T19:30:49.946Z,978.214
2022-08-16T19:32:50.579Z,978.250
2022-08-16T19:34:50.321Z,978.240
2022-08-16T19:36:50.789Z,978.240
2022-08-16T19:38:54.175Z,978.303
2022-08-16T19:40:50.497Z,978.299
2022-08-16T19:42:50.604Z,978.330
2022-08-16T19:44:50.636Z,978.320
2022-08-16T19:46:49.998Z,978.348
2022-08-16T19:48:50.039Z,978.344
2022-08-16T19:50:50.167Z,978.351
2022-08-16T19:52:49.962Z,978.395
2022-08-16T19:54:50.272Z,978.410
2022-08-16T19:56:50.609Z,978.405
2022-08-16T19:59:19.674Z,978.419
2022-08-16T20:00:56.576Z,978.459
2022-08-16T20:02:50.805Z,978.437
2022-08-16T20:04:50.551Z,978.460
2022-08-16T20:06:52.940Z,978.473
2022-08-16T20:08:50.006Z,978.492
2022-08-16T20:10:50.778Z,978.483
2022-08-16T20:13:03.048Z,978.502
2022-08-16T20:14:50.364Z,978.546
2022-08-16T20:16:50.601Z,978.577
2022-08-16T20:18:50.618Z,978.600
2022-08-16T20:20:50.614Z,978.609
2022-08-16T20:22:55.013Z,978.602
2022-08-16T20:24:53.523Z,978.646
2022-08-16T20:26:50.063Z,978.649
2022-08-16T20:28:55.541Z,978.644
2022-08-16T20:30:50.402Z,978.670
2022-08-16T20:32:51.369Z,978.686
2022-08-16T20:34:50.399Z,978.702
2022-08-16T20:36:50.583Z,978.694
2022-08-16T20:38:50.005Z,978.710
2022-08-16T20:40:50.055Z,978.736
2022-08-16T20:42:58.723Z,978.728
2022-08-16T20:44:50.021Z,978.762
2022-08-16T20:46:50.603Z,978.756
2022-08-16T20:48:50.627Z,978.757
2022-08-16T20:50:50.666Z,978.757
2022-08-16T20:52:51.621Z,978.824
2022-08-16T20:54:49.813Z,978.827
2022-08-16T20:56:50.204Z,978.816
2022-08-16T20:58:50.276Z,978.800
2022-08-16T21:00:50.433Z,978.786
2022-08-16T21:02:50.927Z,978.777
2022-08-16T21:04:50.588Z,978.761
2022-08-16T21:06:55.403Z,978.759
2022-08-16T21:08:54.602Z,978.760
2022-08-16T21:10:50.542Z,978.754
2022-08-16T21:12:51.179Z,978.727
2022-08-16T21:14:50.677Z,978.750
2022-08-16T21:16:49.976Z,978.810
2022-08-16T21:18:49.909Z,978.870
2022-08-16T21:20:50.163Z,978.870
2022-08-16T21:22:56.046Z,978.897
2022-08-16T21:24:54.457Z,978.904
2022-08-16T21:26:56.600Z,978.896
2022-08-16T21:28:51.757Z,978.923
2022-08-16T21:30:50.641Z,978.928
2022-08-16T21:32:51.174Z,978.945
2022-08-16T21:34:50.224Z,978.961
2022-08-16T21:36:50.552Z,978.958
2022-08-16T21:38:50.545Z,978.948
2022-08-16T21:40:52.090Z,978.937
2022-08-16T21:42:50.485Z,978.962
2022-08-16T21:44:49.916Z,978.963
2022-08-16T21:46:50.027Z,978.973
2022-08-16T21:48:49.854Z,978.967
2022-08-16T21:50:50.753Z,978.976
2022-08-16T21:52:50.600Z,978.991
2022-08-16T21:54:56.600Z,979.038
2022-08-16T21:56:50.279Z,979.004
2022-08-16T21:58:54.010Z,979.013
2022-08-16T22:00:50.269Z,979.011
2022-08-16T22:02:51.877Z,979.005
2022-08-16T22:04:50.183Z,979.022
2022-08-16T22:06:50.618Z,979.024
2022-08-16T22:08:51.456Z,979.030
2022-08-16T22:11:08.918Z,979.051
2022-08-16T22:12:51.743Z,979.035
2022-08-16T22:14:50.138Z,979.027
2022-08-16T22:16:50.278Z,979.046
2022-08-16T22:18:53.118Z,979.021
2022-08-16T22:20:49.879Z,979.016
2022-08-16T22:22:50.429Z,979.020
2022-08-16T22:24:50.051Z,979.002
2022-08-16T22:26:50.281Z,979.009
2022-08-16T22:28:50.118Z,979.035
2022-08-16T22:30:50.144Z,979.056
2022-08-16T22:32:50.662Z,979.078
2022-08-16T22:34:50.548Z,979.077
2022-08-16T22:36:50.426Z,979.073
2022-08-16T22:38:59.265Z,979.047
2022-08-16T22:40:50.627Z,979.055
2022-08-16T22:42:51.603Z,979.028
2022-08-16T22:44:49.905Z,979.019
2022-08-16T22:46:49.997Z,979.042
2022-08-16T22:48:49.985Z,978.997
2022-08-16T22:50:50.789Z,979.039
2022-08-16T22:52:57.589Z,979.001
2022-08-16T22:54:49.964Z,979.017
2022-08-16T22:56:50.254Z,979.022
2022-08-16T22:58:50.239Z,979.037
2022-08-16T23:00:50.221Z,979.006
2022-08-16T23:02:50.929Z,979.014
2022-08-16T23:04:50.766Z,979.040
2022-08-16T23:06:50.157Z,979.040
2022-08-16T23:08:50.229Z,979.031
2022-08-16T23:10:50.171Z,978.993
2022-08-16T23:12:50.671Z,978.993
2022-08-16T23:14:54.007Z,979.054
2022-08-16T23:16:50.322Z,979.033
2022-08-16T23:18:50.124Z,978.926
2022-08-16T23:20:50.418Z,978.976
2022-08-16T23:23:20.165Z,979.006
2022-08-16T23:24:57.282Z,978.983
2022-08-16T23:26:50.508Z,979.001
2022-08-16T23:28:49.831Z,979.010
2022-08-16T23:30:49.987Z,978.968
2022-08-16T23:32:50.464Z,978.968
2022-08-16T23:34:54.538Z,978.946
2022-08-16T23:36:49.831Z,978.951
2022-08-16T23:38:50.755Z,978.931
2022-08-16T23:40:50.659Z,978.947
2022-08-16T23:43:00.000Z,978.988
2022-08-16T23:44:59.773Z,978.957
2022-08-16T23:46:50.097Z,978.982
2022-08-16T23:49:45.271Z,979.026
2022-08-16T23:50:50.109Z,979.034
2022-08-16T23:52:55.972Z,979.016
2022-08-16T23:54:49.825Z,978.987
2022-08-16T23:56:50.173Z,978.994
2022-08-16T23:59:05.818Z,978.961
